sensor_id;sensor_type;location;lat;lon;timestamp;pressure;altitude;pressure_sealevel;temperature;humidity
65760;BME280;52496;51.082;5.066;2023-08-12T00:00:39;101660.22;;;21.01;100.00
65760;BME280;52496;51.082;5.066;2023-08-12T00:03:10;101644.16;;;21.00;100.00
65760;BME280;52496;51.082;5.066;2023-08-12T00:05:40;101649.13;;;21.03;100.00
65760;BME280;52496;51.082;5.066;2023-08-12T00:08:13;101644.50;;;21.03;100.00
65760;BME280;52496;51.082;5.066;2023-08-12T00:10:43;101652.88;;;21.02;100.00
65760;BME280;52496;51.082;5.066;2023-08-12T00:13:13;101654.78;;;21.01;100.00
65760;BME280;52496;51.082;5.066;2023-08-12T00:15:47;101647.69;;;21.00;100.00
65760;BME280;52496;51.082;5.066;2023-08-12T00:18:18;101647.09;;;20.98;100.00
65760;BME280;52496;51.082;5.066;2023-08-12T00:20:48;101656.88;;;20.99;100.00
65760;BME280;52496;51.082;5.066;2023-08-12T00:23:18;101648.16;;;20.97;100.00
65760;BME280;52496;51.082;5.066;2023-08-12T00:25:49;101650.88;;;20.97;100.00
65760;BME280;52496;51.082;5.066;2023-08-12T00:28:20;101640.00;;;20.97;100.00
65760;BME280;52496;51.082;5.066;2023-08-12T00:30:50;101638.09;;;20.98;100.00
65760;BME280;52496;51.082;5.066;2023-08-12T00:33:20;101627.44;;;20.96;100.00
65760;BME280;52496;51.082;5.066;2023-08-12T00:35:51;101630.16;;;20.96;100.00
65760;BME280;52496;51.082;5.066;2023-08-12T00:38:21;101636.69;;;20.95;100.00
65760;BME280;52496;51.082;5.066;2023-08-12T00:40:52;101633.13;;;20.95;100.00
65760;BME280;52496;51.082;5.066;2023-08-12T00:43:22;101640.47;;;20.94;100.00
65760;BME280;52496;51.082;5.066;2023-08-12T00:45:52;101637.50;;;20.96;100.00
65760;BME280;52496;51.082;5.066;2023-08-12T00:48:23;101641.03;;;20.96;100.00
65760;BME280;52496;51.082;5.066;2023-08-12T00:50:54;101639.19;;;20.97;100.00
65760;BME280;52496;51.082;5.066;2023-08-12T00:53:24;101642.72;;;20.97;100.00
65760;BME280;52496;51.082;5.066;2023-08-12T00:55:55;101633.97;;;20.95;100.00
65760;BME280;52496;51.082;5.066;2023-08-12T00:58:25;101630.41;;;20.95;100.00
65760;BME280;52496;51.082;5.066;2023-08-12T01:00:56;101625.44;;;20.92;100.00
65760;BME280;52496;51.082;5.066;2023-08-12T01:03:26;101627.34;;;20.91;100.00
65760;BME280;52496;51.082;5.066;2023-08-12T01:05:57;101614.78;;;20.90;100.00
65760;BME280;52496;51.082;5.066;2023-08-12T01:08:30;101611.50;;;20.88;100.00
65760;BME280;52496;51.082;5.066;2023-08-12T01:11:08;101601.09;;;20.85;100.00
65760;BME280;52496;51.082;5.066;2023-08-12T01:13:51;101597.78;;;20.83;100.00
65760;BME280;52496;51.082;5.066;2023-08-12T01:16:22;101589.84;;;20.81;100.00
65760;BME280;52496;51.082;5.066;2023-08-12T01:18:53;101589.00;;;20.81;100.00
65760;BME280;52496;51.082;5.066;2023-08-12T01:21:24;101584.03;;;20.78;100.00
65760;BME280;52496;51.082;5.066;2023-08-12T01:23:54;101589.47;;;20.78;100.00
65760;BME280;52496;51.082;5.066;2023-08-12T01:26:25;101579.69;;;20.77;100.00
65760;BME280;52496;51.082;5.066;2023-08-12T01:28:56;101579.06;;;20.75;100.00
65760;BME280;52496;51.082;5.066;2023-08-12T01:31:32;101577.66;;;20.72;100.00
65760;BME280;52496;51.082;5.066;2023-08-12T01:34:17;101573.53;;;20.70;100.00
65760;BME280;52496;51.082;5.066;2023-08-12T01:36:54;101563.72;;;20.69;100.00
65760;BME280;52496;51.082;5.066;2023-08-12T01:39:26;101559.34;;;20.68;100.00
65760;BME280;52496;51.082;5.066;2023-08-12T01:41:58;101560.88;;;20.64;100.00
65760;BME280;52496;51.082;5.066;2023-08-12T01:44:29;101565.47;;;20.63;100.00
65760;BME280;52496;51.082;5.066;2023-08-12T01:46:59;101560.03;;;20.63;100.00
65760;BME280;52496;51.082;5.066;2023-08-12T01:49:30;101570.06;;;20.62;100.00
65760;BME280;52496;51.082;5.066;2023-08-12T01:52:01;101563.81;;;20.62;100.00
65760;BME280;52496;51.082;5.066;2023-08-12T01:54:31;101566.78;;;20.60;100.00
65760;BME280;52496;51.082;5.066;2023-08-12T01:57:04;101571.63;;;20.58;100.00
65760;BME280;52496;51.082;5.066;2023-08-12T01:59:35;101563.69;;;20.57;100.00
65760;BME280;52496;51.082;5.066;2023-08-12T02:02:06;101559.09;;;20.57;100.00
65760;BME280;52496;51.082;5.066;2023-08-12T02:04:36;101548.44;;;20.56;100.00
65760;BME280;52496;51.082;5.066;2023-08-12T02:07:07;101560.75;;;20.58;100.00
65760;BME280;52496;51.082;5.066;2023-08-12T02:09:38;101553.66;;;20.57;100.00
65760;BME280;52496;51.082;5.066;2023-08-12T02:12:08;101549.28;;;20.56;100.00
65760;BME280;52496;51.082;5.066;2023-08-12T02:14:39;101556.00;;;20.54;100.00
65760;BME280;52496;51.082;5.066;2023-08-12T02:17:09;101551.84;;;20.51;100.00
65760;BME280;52496;51.082;5.066;2023-08-12T02:19:39;101546.88;;;20.48;100.00
65760;BME280;52496;51.082;5.066;2023-08-12T02:22:10;101545.22;;;20.47;100.00
65760;BME280;52496;51.082;5.066;2023-08-12T02:24:40;101542.50;;;20.47;100.00
65760;BME280;52496;51.082;5.066;2023-08-12T02:27:11;101541.91;;;20.45;100.00
65760;BME280;52496;51.082;5.066;2023-08-12T02:29:41;101540.25;;;20.44;100.00
65760;BME280;52496;51.082;5.066;2023-08-12T02:32:12;101537.78;;;20.43;100.00
65760;BME280;52496;51.082;5.066;2023-08-12T02:34:42;101519.56;;;20.43;100.00
65760;BME280;52496;51.082;5.066;2023-08-12T02:37:13;101520.19;;;20.45;100.00
65760;BME280;52496;51.082;5.066;2023-08-12T02:39:43;101515.56;;;20.46;100.00
65760;BME280;52496;51.082;5.066;2023-08-12T02:42:14;101514.75;;;20.45;100.00
65760;BME280;52496;51.082;5.066;2023-08-12T02:44:44;101507.63;;;20.44;100.00
65760;BME280;52496;51.082;5.066;2023-08-12T02:47:14;101505.38;;;20.41;100.00
65760;BME280;52496;51.082;5.066;2023-08-12T02:49:45;101494.53;;;20.41;100.00
65760;BME280;52496;51.082;5.066;2023-08-12T02:52:15;101495.13;;;20.43;100.00
65760;BME280;52496;51.082;5.066;2023-08-12T02:54:46;101495.13;;;20.43;100.00
65760;BME280;52496;51.082;5.066;2023-08-12T02:57:16;101498.91;;;20.42;100.00
65760;BME280;52496;51.082;5.066;2023-08-12T02:59:46;101491.81;;;20.41;100.00
65760;BME280;52496;51.082;5.066;2023-08-12T03:02:17;101489.56;;;20.38;100.00
65760;BME280;52496;51.082;5.066;2023-08-12T03:04:48;101491.25;;;20.39;100.00
65760;BME280;52496;51.082;5.066;2023-08-12T03:07:18;101490.16;;;20.40;100.00
65760;BME280;52496;51.082;5.066;2023-08-12T03:09:48;101479.75;;;20.37;100.00
65760;BME280;52496;51.082;5.066;2023-08-12T03:12:19;101487.91;;;20.37;100.00
65760;BME280;52496;51.082;5.066;2023-08-12T03:14:49;101477.28;;;20.35;100.00
65760;BME280;52496;51.082;5.066;2023-08-12T03:17:20;101475.63;;;20.34;100.00
65760;BME280;52496;51.082;5.066;2023-08-12T03:19:50;101474.56;;;20.35;100.00
65760;BME280;52496;51.082;5.066;2023-08-12T03:22:21;101471.25;;;20.33;100.00
65760;BME280;52496;51.082;5.066;2023-08-12T03:24:51;101468.28;;;20.35;100.00
65760;BME280;52496;51.082;5.066;2023-08-12T03:27:22;101463.94;;;20.34;100.00
65760;BME280;52496;51.082;5.066;2023-08-12T03:29:52;101470.19;;;20.34;100.00
65760;BME280;52496;51.082;5.066;2023-08-12T03:32:24;101454.72;;;20.35;100.00
65760;BME280;52496;51.082;5.066;2023-08-12T03:34:54;101451.44;;;20.33;100.00
65760;BME280;52496;51.082;5.066;2023-08-12T03:37:25;101451.44;;;20.33;100.00
65760;BME280;52496;51.082;5.066;2023-08-12T03:39:55;101447.63;;;20.34;100.00
65760;BME280;52496;51.082;5.066;2023-08-12T03:42:26;101454.72;;;20.35;100.00
65760;BME280;52496;51.082;5.066;2023-08-12T03:44:56;101455.53;;;20.35;100.00
65760;BME280;52496;51.082;5.066;2023-08-12T03:47:27;101446.34;;;20.36;100.00
65760;BME280;52496;51.082;5.066;2023-08-12T03:49:57;101443.38;;;20.38;100.00
65760;BME280;52496;51.082;5.066;2023-08-12T03:52:27;101451.31;;;20.39;100.00
65760;BME280;52496;51.082;5.066;2023-08-12T03:54:58;101449.41;;;20.40;100.00
65760;BME280;52496;51.082;5.066;2023-08-12T03:57:28;101454.25;;;20.38;100.00
65760;BME280;52496;51.082;5.066;2023-08-12T03:59:59;101449.63;;;20.38;100.00
65760;BME280;52496;51.082;5.066;2023-08-12T04:02:29;101443.84;;;20.35;100.00
65760;BME280;52496;51.082;5.066;2023-08-12T04:05:00;101447.63;;;20.34;100.00
65760;BME280;52496;51.082;5.066;2023-08-12T04:07:31;101446.00;;;20.33;100.00
65760;BME280;52496;51.082;5.066;2023-08-12T04:10:02;101446.00;;;20.33;100.00
65760;BME280;52496;51.082;5.066;2023-08-12T04:12:33;101449.75;;;20.32;100.00
65760;BME280;52496;51.082;5.066;2023-08-12T04:15:04;101450.81;;;20.31;100.00
65760;BME280;52496;51.082;5.066;2023-08-12T04:17:35;101454.38;;;20.31;100.00
65760;BME280;52496;51.082;5.066;2023-08-12T04:20:07;101452.72;;;20.30;100.00
65760;BME280;52496;51.082;5.066;2023-08-12T04:22:37;101463.59;;;20.30;100.00
65760;BME280;52496;51.082;5.066;2023-08-12T04:25:08;101445.84;;;20.28;100.00
65760;BME280;52496;51.082;5.066;2023-08-12T04:27:38;101442.91;;;20.29;100.00
65760;BME280;52496;51.082;5.066;2023-08-12T04:30:09;101425.19;;;20.27;100.00
65760;BME280;52496;51.082;5.066;2023-08-12T04:32:40;101425.44;;;20.25;100.00
65760;BME280;52496;51.082;5.066;2023-08-12T04:35:10;101429.78;;;20.26;100.00
65760;BME280;52496;51.082;5.066;2023-08-12T04:37:40;101426.03;;;20.27;100.00
65760;BME280;52496;51.082;5.066;2023-08-12T04:40:11;101427.06;;;20.26;100.00
65760;BME280;52496;51.082;5.066;2023-08-12T04:42:41;101427.88;;;20.27;100.00
65760;BME280;52496;51.082;5.066;2023-08-12T04:45:12;101412.06;;;20.24;100.00
65760;BME280;52496;51.082;5.066;2023-08-12T04:47:43;101406.06;;;20.22;100.00
65760;BME280;52496;51.082;5.066;2023-08-12T04:50:13;101415.84;;;20.23;100.00
65760;BME280;52496;51.082;5.066;2023-08-12T04:52:44;101406.41;;;20.25;100.00
65760;BME280;52496;51.082;5.066;2023-08-12T04:55:14;101407.72;;;20.23;100.00
65760;BME280;52496;51.082;5.066;2023-08-12T04:57:45;101405.00;;;20.23;100.00
65760;BME280;52496;51.082;5.066;2023-08-12T05:00:15;101405.00;;;20.23;100.00
65760;BME280;52496;51.082;5.066;2023-08-12T05:02:46;101400.38;;;20.23;100.00
65760;BME280;52496;51.082;5.066;2023-08-12T05:05:16;101402.88;;;20.25;100.00
65760;BME280;52496;51.082;5.066;2023-08-12T05:07:46;101392.59;;;20.27;100.00
65760;BME280;52496;51.082;5.066;2023-08-12T05:10:20;101384.91;;;20.24;100.00
65760;BME280;52496;51.082;5.066;2023-08-12T05:12:50;101378.91;;;20.22;100.00
65760;BME280;52496;51.082;5.066;2023-08-12T05:15:22;101379.94;;;20.21;100.00
65760;BME280;52496;51.082;5.066;2023-08-12T05:17:52;101378.91;;;20.22;100.00
65760;BME280;52496;51.082;5.066;2023-08-12T05:20:23;101376.75;;;20.24;100.00
65760;BME280;52496;51.082;5.066;2023-08-12T05:22:53;101370.03;;;20.26;100.00
65760;BME280;52496;51.082;5.066;2023-08-12T05:25:24;101375.84;;;20.30;100.00
65760;BME280;52496;51.082;5.066;2023-08-12T05:27:54;101372.06;;;20.31;100.00
65760;BME280;52496;51.082;5.066;2023-08-12T05:30:24;101359.06;;;20.33;100.00
65760;BME280;52496;51.082;5.066;2023-08-12T05:32:55;101370.50;;;20.35;100.00
65760;BME280;52496;51.082;5.066;2023-08-12T05:35:25;101369.00;;;20.39;100.00
65760;BME280;52496;51.082;5.066;2023-08-12T05:37:56;101370.38;;;20.42;100.00
65760;BME280;52496;51.082;5.066;2023-08-12T05:40:26;101375.59;;;20.43;100.00
65760;BME280;52496;51.082;5.066;2023-08-12T05:42:57;101371.81;;;20.44;100.00
65760;BME280;52496;51.082;5.066;2023-08-12T05:45:27;101371.81;;;20.44;100.00
65760;BME280;52496;51.082;5.066;2023-08-12T05:47:58;101375.13;;;20.46;100.00
65760;BME280;52496;51.082;5.066;2023-08-12T05:50:28;101370.50;;;20.47;100.00
65760;BME280;52496;51.082;5.066;2023-08-12T05:52:58;101371.09;;;20.49;100.00
65760;BME280;52496;51.082;5.066;2023-08-12T05:55:29;101373.56;;;20.50;100.00
65760;BME280;52496;51.082;5.066;2023-08-12T05:57:59;101372.53;;;20.51;100.00
65760;BME280;52496;51.082;5.066;2023-08-12T06:00:30;101378.81;;;20.52;100.00
65760;BME280;52496;51.082;5.066;2023-08-12T06:03:00;101375.03;;;20.53;100.00
65760;BME280;52496;51.082;5.066;2023-08-12T06:05:31;101363.34;;;20.52;100.00
65760;BME280;52496;51.082;5.066;2023-08-12T06:08:02;101370.41;;;20.53;100.00
65760;BME280;52496;51.082;5.066;2023-08-12T06:10:33;101369.13;;;20.56;100.00
65760;BME280;52496;51.082;5.066;2023-08-12T06:13:04;101374.06;;;20.59;100.00
65760;BME280;52496;51.082;5.066;2023-08-12T06:15:35;101377.38;;;20.61;100.00
65760;BME280;52496;51.082;5.066;2023-08-12T06:18:05;101379.28;;;20.60;100.00
65760;BME280;52496;51.082;5.066;2023-08-12T06:20:36;101378.22;;;20.61;100.00
65760;BME280;52496;51.082;5.066;2023-08-12T06:23:06;101376.09;;;20.64;100.00
65760;BME280;52496;51.082;5.066;2023-08-12T06:25:37;101373.13;;;20.65;100.00
65760;BME280;52496;51.082;5.066;2023-08-12T06:28:07;101383.28;;;20.70;100.00
65760;BME280;52496;51.082;5.066;2023-08-12T06:30:39;101379.50;;;20.71;100.00
65760;BME280;52496;51.082;5.066;2023-08-12T06:33:09;101372.50;;;20.75;100.00
65760;BME280;52496;51.082;5.066;2023-08-12T06:35:40;101372.03;;;20.78;100.00
65760;BME280;52496;51.082;5.066;2023-08-12T06:38:10;101373.44;;;20.80;100.00
65760;BME280;52496;51.082;5.066;2023-08-12T06:40:41;101374.88;;;20.83;100.00
65760;BME280;52496;51.082;5.066;2023-08-12T06:43:11;101369.44;;;20.83;100.00
65760;BME280;52496;51.082;5.066;2023-08-12T06:45:42;101376.50;;;20.84;100.00
65760;BME280;52496;51.082;5.066;2023-08-12T06:48:12;101379.81;;;20.86;100.00
65760;BME280;52496;51.082;5.066;2023-08-12T06:50:43;101377.91;;;20.87;100.00
65760;BME280;52496;51.082;5.066;2023-08-12T06:53:13;101370.03;;;20.85;100.00
65760;BME280;52496;51.082;5.066;2023-08-12T06:55:44;101372.75;;;20.85;100.00
65760;BME280;52496;51.082;5.066;2023-08-12T06:58:15;101377.69;;;20.88;100.00
65760;BME280;52496;51.082;5.066;2023-08-12T07:00:46;101383.69;;;20.90;100.00
65760;BME280;52496;51.082;5.066;2023-08-12T07:03:16;101379.69;;;20.93;100.00
65760;BME280;52496;51.082;5.066;2023-08-12T07:05:47;101386.78;;;20.94;100.00
65760;BME280;52496;51.082;5.066;2023-08-12T07:08:17;101377.56;;;20.95;100.00
65760;BME280;52496;51.082;5.066;2023-08-12T07:10:47;101375.66;;;20.95;100.00
65760;BME280;52496;51.082;5.066;2023-08-12T07:13:18;101372.13;;;20.95;100.00
65760;BME280;52496;51.082;5.066;2023-08-12T07:15:48;101372.94;;;20.95;100.00
65760;BME280;52496;51.082;5.066;2023-08-12T07:18:19;101366.78;;;21.00;100.00
65760;BME280;52496;51.082;5.066;2023-08-12T07:20:49;101356.81;;;21.05;100.00
65760;BME280;52496;51.082;5.066;2023-08-12T07:23:20;101368.41;;;21.13;100.00
65760;BME280;52496;51.082;5.066;2023-08-12T07:25:50;101364.72;;;21.19;100.00
65760;BME280;52496;51.082;5.066;2023-08-12T07:28:21;101360.69;;;21.21;100.00
65760;BME280;52496;51.082;5.066;2023-08-12T07:30:51;101368.00;;;21.21;100.00
65760;BME280;52496;51.082;5.066;2023-08-12T07:33:22;101366.47;;;21.25;100.00
65760;BME280;52496;51.082;5.066;2023-08-12T07:35:53;101375.19;;;21.27;100.00
65760;BME280;52496;51.082;5.066;2023-08-12T07:38:23;101371.91;;;21.25;100.00
65760;BME280;52496;51.082;5.066;2023-08-12T07:40:54;101377.00;;;21.21;100.00
65760;BME280;52496;51.082;5.066;2023-08-12T07:43:26;101372.06;;;21.18;100.00
65760;BME280;52496;51.082;5.066;2023-08-12T07:45:56;101367.44;;;21.19;100.00
65760;BME280;52496;51.082;5.066;2023-08-12T07:48:26;101370.50;;;21.22;100.00
65760;BME280;52496;51.082;5.066;2023-08-12T07:50:57;101372.47;;;21.27;100.00
65760;BME280;52496;51.082;5.066;2023-08-12T07:53:28;101380.50;;;21.34;100.00
65760;BME280;52496;51.082;5.066;2023-08-12T07:55:58;101380.38;;;21.40;100.00
65760;BME280;52496;51.082;5.066;2023-08-12T07:58:29;101384.03;;;21.46;100.00
65760;BME280;52496;51.082;5.066;2023-08-12T08:01:00;101385.19;;;21.50;100.00
65760;BME280;52496;51.082;5.066;2023-08-12T08:03:30;101386.00;;;21.50;100.00
65760;BME280;52496;51.082;5.066;2023-08-12T08:06:01;101383.38;;;21.56;100.00
65760;BME280;52496;51.082;5.066;2023-08-12T08:08:31;101387.59;;;21.63;100.00
65760;BME280;52496;51.082;5.066;2023-08-12T08:11:02;101385.72;;;21.64;100.00
65760;BME280;52496;51.082;5.066;2023-08-12T08:13:32;101390.19;;;21.70;100.00
65760;BME280;52496;51.082;5.066;2023-08-12T08:16:02;101385.41;;;21.77;100.00
65760;BME280;52496;51.082;5.066;2023-08-12T08:18:33;101395.53;;;21.82;100.00
65760;BME280;52496;51.082;5.066;2023-08-12T08:21:03;101392.50;;;21.78;100.00
65760;BME280;52496;51.082;5.066;2023-08-12T08:23:34;101385.13;;;21.79;100.00
65760;BME280;52496;51.082;5.066;2023-08-12T08:26:04;101387.63;;;21.80;100.00
65760;BME280;52496;51.082;5.066;2023-08-12T08:28:35;101398.03;;;21.83;100.00
65760;BME280;52496;51.082;5.066;2023-08-12T08:31:05;101394.50;;;21.83;100.00
65760;BME280;52496;51.082;5.066;2023-08-12T08:33:35;101398.94;;;21.89;100.00
65760;BME280;52496;51.082;5.066;2023-08-12T08:36:06;101411.25;;;21.91;100.00
65760;BME280;52496;51.082;5.066;2023-08-12T08:38:36;101414.47;;;21.88;100.00
65760;BME280;52496;51.082;5.066;2023-08-12T08:41:08;101410.34;;;21.86;100.00
65760;BME280;52496;51.082;5.066;2023-08-12T08:43:41;101420.41;;;21.85;100.00
65760;BME280;52496;51.082;5.066;2023-08-12T08:46:15;101422.38;;;21.90;100.00
65760;BME280;52496;51.082;5.066;2023-08-12T08:48:46;101434.50;;;21.82;100.00
65760;BME280;52496;51.082;5.066;2023-08-12T08:51:19;101434.56;;;21.70;100.00
65760;BME280;52496;51.082;5.066;2023-08-12T08:53:50;101435.09;;;21.56;100.00
65760;BME280;52496;51.082;5.066;2023-08-12T08:56:24;101440.44;;;21.50;100.00
65760;BME280;52496;51.082;5.066;2023-08-12T08:58:55;101446.63;;;21.46;100.00
65760;BME280;52496;51.082;5.066;2023-08-12T09:01:26;101446.47;;;21.52;100.00
65760;BME280;52496;51.082;5.066;2023-08-12T09:03:58;101447.72;;;21.62;100.00
65760;BME280;52496;51.082;5.066;2023-08-12T09:06:29;101448.50;;;21.74;100.00
65760;BME280;52496;51.082;5.066;2023-08-12T09:09:01;101452.00;;;21.86;100.00
65760;BME280;52496;51.082;5.066;2023-08-12T09:11:33;101451.34;;;21.96;100.00
65760;BME280;52496;51.082;5.066;2023-08-12T09:14:03;101451.88;;;22.10;100.00
65760;BME280;52496;51.082;5.066;2023-08-12T09:16:34;101459.53;;;22.13;100.00
65760;BME280;52496;51.082;5.066;2023-08-12T09:19:04;101464.50;;;22.16;100.00
65760;BME280;52496;51.082;5.066;2023-08-12T09:21:35;101467.81;;;22.18;100.00
65760;BME280;52496;51.082;5.066;2023-08-12T09:24:07;101460.06;;;22.27;100.00
65760;BME280;52496;51.082;5.066;2023-08-12T09:26:38;101465.00;;;22.30;100.00
65760;BME280;52496;51.082;5.066;2023-08-12T09:29:12;101461.63;;;22.39;100.00
65760;BME280;52496;51.082;5.066;2023-08-12T09:31:42;101457.75;;;22.52;100.00
65760;BME280;52496;51.082;5.066;2023-08-12T09:34:13;101461.03;;;22.54;100.00
65760;BME280;52496;51.082;5.066;2023-08-12T09:36:43;101460.72;;;22.51;100.00
65760;BME280;52496;51.082;5.066;2023-08-12T09:39:14;101459.22;;;22.60;100.00
65760;BME280;52496;51.082;5.066;2023-08-12T09:41:45;101450.69;;;22.73;100.00
65760;BME280;52496;51.082;5.066;2023-08-12T09:44:15;101460.00;;;22.94;100.00
65760;BME280;52496;51.082;5.066;2023-08-12T09:46:45;101461.88;;;23.10;100.00
65760;BME280;52496;51.082;5.066;2023-08-12T09:49:17;101467.06;;;23.12;100.00
65760;BME280;52496;51.082;5.066;2023-08-12T09:51:47;101469.88;;;23.17;100.00
65760;BME280;52496;51.082;5.066;2023-08-12T09:54:18;101460.41;;;23.25;100.00
65760;BME280;52496;51.082;5.066;2023-08-12T09:56:54;101473.81;;;23.26;100.00
65760;BME280;52496;51.082;5.066;2023-08-12T09:59:31;101479.78;;;23.23;100.00
65760;BME280;52496;51.082;5.066;2023-08-12T10:02:05;101476.84;;;23.08;100.00
65760;BME280;52496;51.082;5.066;2023-08-12T10:04:39;101483.50;;;22.95;100.00
65760;BME280;52496;51.082;5.066;2023-08-12T10:07:12;101483.50;;;22.95;100.00
65760;BME280;52496;51.082;5.066;2023-08-12T10:09:44;101486.97;;;23.12;100.00
65760;BME280;52496;51.082;5.066;2023-08-12T10:12:15;101480.53;;;23.41;100.00
65760;BME280;52496;51.082;5.066;2023-08-12T10:14:46;101486.22;;;23.61;100.00
65760;BME280;52496;51.082;5.066;2023-08-12T10:17:17;101494.81;;;23.70;100.00
65760;BME280;52496;51.082;5.066;2023-08-12T10:19:54;101484.25;;;23.78;100.00
65760;BME280;52496;51.082;5.066;2023-08-12T10:22:29;101492.66;;;23.72;100.00
65760;BME280;52496;51.082;5.066;2023-08-12T10:25:02;101489.28;;;23.65;100.00
65760;BME280;52496;51.082;5.066;2023-08-12T10:27:33;101482.41;;;23.62;100.00
65760;BME280;52496;51.082;5.066;2023-08-12T10:30:04;101489.78;;;23.62;100.00
65760;BME280;52496;51.082;5.066;2023-08-12T10:32:36;101479.25;;;23.70;100.00
65760;BME280;52496;51.082;5.066;2023-08-12T10:35:07;101468.44;;;23.80;100.00
65760;BME280;52496;51.082;5.066;2023-08-12T10:37:39;101479.66;;;24.11;100.00
65760;BME280;52496;51.082;5.066;2023-08-12T10:40:20;101485.91;;;24.39;100.00
65760;BME280;52496;51.082;5.066;2023-08-12T10:42:51;101485.72;;;24.45;100.00
65760;BME280;52496;51.082;5.066;2023-08-12T10:45:22;101489.91;;;24.26;100.00
65760;BME280;52496;51.082;5.066;2023-08-12T10:50:30;101493.56;;;23.83;100.00
65760;BME280;52496;51.082;5.066;2023-08-12T10:53:22;101498.69;;;23.74;100.00
65760;BME280;52496;51.082;5.066;2023-08-12T10:55:59;101491.84;;;23.71;100.00
65760;BME280;52496;51.082;5.066;2023-08-12T10:58:46;101491.88;;;23.76;100.00
65760;BME280;52496;51.082;5.066;2023-08-12T11:01:17;101490.91;;;23.88;100.00
65760;BME280;52496;51.082;5.066;2023-08-12T11:03:50;101495.41;;;23.99;100.00
65760;BME280;52496;51.082;5.066;2023-08-12T11:06:20;101501.91;;;23.98;100.00
65760;BME280;52496;51.082;5.066;2023-08-12T11:08:55;101508.31;;;23.81;100.00
65760;BME280;52496;51.082;5.066;2023-08-12T11:11:26;101522.13;;;23.70;100.00
65760;BME280;52496;51.082;5.066;2023-08-12T11:13:57;101513.59;;;23.66;100.00
65760;BME280;52496;51.082;5.066;2023-08-12T11:16:37;101512.69;;;23.61;100.00
65760;BME280;52496;51.082;5.066;2023-08-12T11:19:08;101513.41;;;23.51;100.00
65760;BME280;52496;51.082;5.066;2023-08-12T11:21:39;101495.91;;;23.47;100.00
65760;BME280;52496;51.082;5.066;2023-08-12T11:24:10;101482.19;;;23.42;100.00
65760;BME280;52496;51.082;5.066;2023-08-12T11:26:41;101477.91;;;23.51;100.00
65760;BME280;52496;51.082;5.066;2023-08-12T11:29:12;101461.53;;;23.73;100.00
65760;BME280;52496;51.082;5.066;2023-08-12T11:31:43;101468.81;;;23.89;100.00
65760;BME280;52496;51.082;5.066;2023-08-12T11:34:15;101482.34;;;24.06;100.00
65760;BME280;52496;51.082;5.066;2023-08-12T11:36:45;101489.84;;;24.48;100.00
65760;BME280;52496;51.082;5.066;2023-08-12T11:39:16;101485.16;;;24.86;100.00
65760;BME280;52496;51.082;5.066;2023-08-12T11:41:47;101497.44;;;25.21;100.00
65760;BME280;52496;51.082;5.066;2023-08-12T11:44:22;101498.81;;;25.23;100.00
65760;BME280;52496;51.082;5.066;2023-08-12T11:46:53;101500.72;;;25.28;98.51
65760;BME280;52496;51.082;5.066;2023-08-12T11:49:23;101486.47;;;25.26;100.00
65760;BME280;52496;51.082;5.066;2023-08-12T11:51:54;101485.72;;;25.40;100.00
65760;BME280;52496;51.082;5.066;2023-08-12T11:54:24;101491.03;;;25.73;100.00
65760;BME280;52496;51.082;5.066;2023-08-12T11:56:55;101491.66;;;26.11;100.00
65760;BME280;52496;51.082;5.066;2023-08-12T11:59:27;101489.47;;;26.43;93.48
65760;BME280;52496;51.082;5.066;2023-08-12T12:01:57;101490.56;;;26.63;95.36
65760;BME280;52496;51.082;5.066;2023-08-12T12:04:28;101492.22;;;26.74;88.89
65760;BME280;52496;51.082;5.066;2023-08-12T12:07:00;101494.41;;;26.72;90.85
65760;BME280;52496;51.082;5.066;2023-08-12T12:09:36;101498.81;;;26.58;90.38
65760;BME280;52496;51.082;5.066;2023-08-12T12:12:09;101488.91;;;26.77;92.74
65760;BME280;52496;51.082;5.066;2023-08-12T12:14:40;101492.13;;;27.05;91.53
65760;BME280;52496;51.082;5.066;2023-08-12T12:17:10;101498.88;;;27.43;91.17
65760;BME280;52496;51.082;5.066;2023-08-12T12:19:43;101494.28;;;27.33;88.51
65760;BME280;52496;51.082;5.066;2023-08-12T12:22:13;101488.72;;;27.38;86.61
65760;BME280;52496;51.082;5.066;2023-08-12T12:24:47;101497.28;;;27.32;86.20
65760;BME280;52496;51.082;5.066;2023-08-12T12:27:17;101493.72;;;27.26;88.39
65760;BME280;52496;51.082;5.066;2023-08-12T12:29:48;101503.03;;;27.35;84.24
65760;BME280;52496;51.082;5.066;2023-08-12T12:32:19;101507.41;;;27.41;81.54
65760;BME280;52496;51.082;5.066;2023-08-12T12:34:50;101501.72;;;27.22;80.81
65760;BME280;52496;51.082;5.066;2023-08-12T12:37:21;101502.44;;;27.43;82.14
65760;BME280;52496;51.082;5.066;2023-08-12T12:39:51;101507.59;;;27.60;81.84
65760;BME280;52496;51.082;5.066;2023-08-12T12:42:22;101505.91;;;27.64;75.57
65760;BME280;52496;51.082;5.066;2023-08-12T12:44:52;101512.03;;;27.51;81.51
65760;BME280;52496;51.082;5.066;2023-08-12T12:47:22;101513.53;;;27.08;76.54
65760;BME280;52496;51.082;5.066;2023-08-12T12:49:53;101524.00;;;27.00;77.95
65760;BME280;52496;51.082;5.066;2023-08-12T12:52:23;101521.22;;;27.16;78.07
65760;BME280;52496;51.082;5.066;2023-08-12T12:54:54;101516.81;;;27.25;76.47
65760;BME280;52496;51.082;5.066;2023-08-12T12:57:25;101523.31;;;27.50;76.54
65760;BME280;52496;51.082;5.066;2023-08-12T12:59:55;101536.34;;;27.83;76.84
65760;BME280;52496;51.082;5.066;2023-08-12T13:02:26;101528.56;;;27.96;76.59